»·PEaware :: N175EX KSBP-KSBP

N175EX :: KSBP-KSBP

FLIGHT INFORMATION

Flight Status: Arrived
Operator: Privately registered:
United States
More flights under this callsign
Pilot: Stephan C. (33812)
Aircraft: CESSNA 172 SKYHAWK
(C172)
More flights by this aircraft type
Origin: KSBP San Luis Co Regl
United States
Destination: KSBP San Luis Co Regl
United States
More flights between these airports :: More routes between these airports
Route:
File this flight plan on PilotEdge
Remarks:
Altitude:
(Current/Filed)
1,200ft
Speed:
(Current/Filed)
110kts
Departed: 17-Feb-21 10:56 PM
Arrived: 17-Feb-21 11:37 PM
Distance/Time
Traveled:
0nm/0:40
Distance/Time
To Go:
Arrived

Flight Plot

Page will automatically refresh every two minutes.


Map Options




Map Legend


Flown Route
Filed Route
Departure Airport
Arrival Airport
Navaid (VOR, NDB)
Fix

Horizontal Profiles

Position Reports

Time Latitude Longitude Heading Altitude Ground
Speed
17-Feb-21 22:47 35.234454 -120.632885 161 215ft 0kts
17-Feb-21 22:48 35.234455 -120.632885 161 215ft 0kts
17-Feb-21 22:49 35.234455 -120.632885 161 215ft 0kts
17-Feb-21 22:50 35.234455 -120.632885 161 215ft 0kts
17-Feb-21 22:51 35.234455 -120.632885 161 215ft 0kts
17-Feb-21 22:52 35.234390 -120.633545 296 213ft 10kts
17-Feb-21 22:53 35.233210 -120.632424 204 219ft 0kts
17-Feb-21 22:54 35.232853 -120.633128 295 217ft 21kts
17-Feb-21 22:55 35.242989 -120.652982 271 799ft 78kts
17-Feb-21 22:56 35.223688 -120.663705 134 1342ft 99kts
17-Feb-21 22:57 35.207194 -120.633948 123 1452ft 103kts
17-Feb-21 22:58 35.205930 -120.605809 29 1258ft 90kts
17-Feb-21 22:59 35.223451 -120.616674 307 832ft 81kts
17-Feb-21 23:00 35.235520 -120.637852 307 201ft 50kts
17-Feb-21 23:01 35.246782 -120.658612 284 911ft 74kts
17-Feb-21 23:02 35.228457 -120.666140 128 1217ft 104kts
17-Feb-21 23:03 35.210745 -120.636858 125 1278ft 104kts
17-Feb-21 23:04 35.211014 -120.610253 27 1087ft 79kts
17-Feb-21 23:05 35.226615 -120.622268 305 588ft 73kts
17-Feb-21 23:06 35.237175 -120.640724 306 201ft 74kts
17-Feb-21 23:07 35.247233 -120.664109 248 1090ft 78kts
17-Feb-21 23:08 35.225894 -120.656942 118 1155ft 107kts
17-Feb-21 23:09 35.211488 -120.630014 124 1161ft 82kts
17-Feb-21 23:10 35.220891 -120.612985 335 726ft 70kts
17-Feb-21 23:11 35.231991 -120.631633 307 306ft 66kts
17-Feb-21 23:12 35.242286 -120.649396 307 526ft 78kts
17-Feb-21 23:13 35.239721 -120.671060 206 1200ft 104kts
17-Feb-21 23:14 35.217262 -120.656433 123 1292ft 109kts
17-Feb-21 23:15 35.202257 -120.626832 83 1262ft 101kts
17-Feb-21 23:16 35.222067 -120.613334 311 913ft 88kts
17-Feb-21 23:17 35.233696 -120.634681 307 225ft 60kts
17-Feb-21 23:18 35.244224 -120.652320 308 621ft 75kts
17-Feb-21 23:19 35.238472 -120.672659 206 1210ft 101kts
17-Feb-21 23:20 35.217514 -120.658775 114 1280ft 100kts
17-Feb-21 23:21 35.204107 -120.629449 119 1302ft 93kts
17-Feb-21 23:22 35.217071 -120.612224 354 993ft 80kts
17-Feb-21 23:23 35.231171 -120.630270 307 363ft 68kts
17-Feb-21 23:24 35.241138 -120.647740 308 408ft 76kts
17-Feb-21 23:25 35.245197 -120.670629 224 1189ft 95kts
17-Feb-21 23:26 35.220176 -120.666112 120 1283ft 107kts
17-Feb-21 23:27 35.203468 -120.634818 122 1322ft 110kts
17-Feb-21 23:28 35.214791 -120.611677 16 1065ft 81kts
17-Feb-21 23:29 35.229301 -120.626862 306 482ft 67kts
17-Feb-21 23:30 35.239287 -120.644476 303 349ft 74kts
17-Feb-21 23:31 35.245463 -120.667300 228 1212ft 84kts
17-Feb-21 23:32 35.220926 -120.666045 112 1268ft 108kts
17-Feb-21 23:33 35.207599 -120.632121 115 1309ft 112kts
17-Feb-21 23:34 35.216968 -120.611091 10 1108ft 75kts
17-Feb-21 23:35 35.229319 -120.626763 306 428ft 62kts
17-Feb-21 23:36 35.237017 -120.639998 351 195ft 18kts
17-Feb-21 23:37 35.237503 -120.639947 13 194ft 0kts
17-Feb-21 23:38 35.238685 -120.640982 18 191ft 0kts

Navigation Log

Ident Type
Flight plan parsing failed, navigation log unavailable